sensor_id;sensor_type;location;lat;lon;timestamp;temperature;humidity
51988;DHT22;38003;52.012;4.346;2022-07-22T00:01:44;21.40;55.90
51988;DHT22;38003;52.012;4.346;2022-07-22T00:04:12;21.30;55.70
51988;DHT22;38003;52.012;4.346;2022-07-22T00:06:40;21.40;55.70
51988;DHT22;38003;52.012;4.346;2022-07-22T00:09:08;21.40;55.90
51988;DHT22;38003;52.012;4.346;2022-07-22T00:11:38;21.30;55.60
51988;DHT22;38003;52.012;4.346;2022-07-22T00:14:05;21.30;55.60
51988;DHT22;38003;52.012;4.346;2022-07-22T00:16:33;21.30;55.50
51988;DHT22;38003;52.012;4.346;2022-07-22T00:19:01;21.50;55.50
51988;DHT22;38003;52.012;4.346;2022-07-22T00:21:29;21.40;55.30
51988;DHT22;38003;52.012;4.346;2022-07-22T00:23:57;21.30;55.30
51988;DHT22;38003;52.012;4.346;2022-07-22T00:26:25;21.20;55.20
51988;DHT22;38003;52.012;4.346;2022-07-22T00:28:55;21.30;55.10
51988;DHT22;38003;52.012;4.346;2022-07-22T00:31:23;21.20;55.20
51988;DHT22;38003;52.012;4.346;2022-07-22T00:33:51;21.20;55.30
51988;DHT22;38003;52.012;4.346;2022-07-22T00:36:19;21.20;55.10
51988;DHT22;38003;52.012;4.346;2022-07-22T00:38:47;21.20;55.00
51988;DHT22;38003;52.012;4.346;2022-07-22T00:41:15;21.20;55.00
51988;DHT22;38003;52.012;4.346;2022-07-22T00:43:53;21.20;55.10
51988;DHT22;38003;52.012;4.346;2022-07-22T00:46:23;21.20;55.00
51988;DHT22;38003;52.012;4.346;2022-07-22T00:48:52;21.10;54.90
51988;DHT22;38003;52.012;4.346;2022-07-22T00:51:21;21.20;55.00
51988;DHT22;38003;52.012;4.346;2022-07-22T00:53:50;21.20;55.10
51988;DHT22;38003;52.012;4.346;2022-07-22T00:56:19;21.30;54.90
51988;DHT22;38003;52.012;4.346;2022-07-22T00:58:51;21.20;54.80
51988;DHT22;38003;52.012;4.346;2022-07-22T01:01:20;21.30;54.80
51988;DHT22;38003;52.012;4.346;2022-07-22T01:03:49;21.30;54.70
51988;DHT22;38003;52.012;4.346;2022-07-22T01:06:24;21.20;54.70
51988;DHT22;38003;52.012;4.346;2022-07-22T01:08:51;21.20;54.50
51988;DHT22;38003;52.012;4.346;2022-07-22T01:11:20;21.30;54.30
51988;DHT22;38003;52.012;4.346;2022-07-22T01:13:49;21.20;54.20
51988;DHT22;38003;52.012;4.346;2022-07-22T01:16:18;21.20;54.10
51988;DHT22;38003;52.012;4.346;2022-07-22T01:18:46;21.20;54.30
51988;DHT22;38003;52.012;4.346;2022-07-22T01:21:16;21.20;54.10
51988;DHT22;38003;52.012;4.346;2022-07-22T01:23:44;21.20;54.20
51988;DHT22;38003;52.012;4.346;2022-07-22T01:26:13;21.10;54.00
51988;DHT22;38003;52.012;4.346;2022-07-22T01:28:41;21.20;53.80
51988;DHT22;38003;52.012;4.346;2022-07-22T01:31:09;21.10;53.80
51988;DHT22;38003;52.012;4.346;2022-07-22T01:33:37;21.20;53.60
51988;DHT22;38003;52.012;4.346;2022-07-22T01:36:06;21.20;54.80
51988;DHT22;38003;52.012;4.346;2022-07-22T01:38:36;21.30;54.00
51988;DHT22;38003;52.012;4.346;2022-07-22T01:41:04;21.30;53.90
51988;DHT22;38003;52.012;4.346;2022-07-22T01:43:32;21.30;53.80
51988;DHT22;38003;52.012;4.346;2022-07-22T01:46:00;21.30;53.90
51988;DHT22;38003;52.012;4.346;2022-07-22T01:48:28;21.50;53.60
51988;DHT22;38003;52.012;4.346;2022-07-22T01:50:56;21.20;53.70
51988;DHT22;38003;52.012;4.346;2022-07-22T01:53:24;21.30;53.60
51988;DHT22;38003;52.012;4.346;2022-07-22T01:55:53;21.30;53.50
51988;DHT22;38003;52.012;4.346;2022-07-22T01:58:21;21.60;53.70
51988;DHT22;38003;52.012;4.346;2022-07-22T02:00:49;21.30;54.40
51988;DHT22;38003;52.012;4.346;2022-07-22T02:03:17;21.20;53.60
51988;DHT22;38003;52.012;4.346;2022-07-22T02:05:45;21.10;53.80
51988;DHT22;38003;52.012;4.346;2022-07-22T02:08:13;21.20;53.60
51988;DHT22;38003;52.012;4.346;2022-07-22T02:10:41;21.20;53.80
51988;DHT22;38003;52.012;4.346;2022-07-22T02:13:10;21.30;54.00
51988;DHT22;38003;52.012;4.346;2022-07-22T02:15:38;21.10;54.00
51988;DHT22;38003;52.012;4.346;2022-07-22T02:18:11;21.20;53.50
51988;DHT22;38003;52.012;4.346;2022-07-22T02:20:39;21.20;53.60
51988;DHT22;38003;52.012;4.346;2022-07-22T02:23:07;21.20;53.70
51988;DHT22;38003;52.012;4.346;2022-07-22T02:25:38;21.20;53.60
51988;DHT22;38003;52.012;4.346;2022-07-22T02:28:06;21.20;53.50
51988;DHT22;38003;52.012;4.346;2022-07-22T02:30:36;21.20;53.30
51988;DHT22;38003;52.012;4.346;2022-07-22T02:33:04;21.20;53.40
51988;DHT22;38003;52.012;4.346;2022-07-22T02:35:34;21.20;53.40
51988;DHT22;38003;52.012;4.346;2022-07-22T02:38:02;21.20;53.40
51988;DHT22;38003;52.012;4.346;2022-07-22T02:40:31;21.10;53.60
51988;DHT22;38003;52.012;4.346;2022-07-22T02:42:59;21.00;53.90
51988;DHT22;38003;52.012;4.346;2022-07-22T02:45:27;21.10;53.60
51988;DHT22;38003;52.012;4.346;2022-07-22T02:47:57;21.10;53.60
51988;DHT22;38003;52.012;4.346;2022-07-22T02:50:26;21.10;53.50
51988;DHT22;38003;52.012;4.346;2022-07-22T02:52:54;21.10;53.50
51988;DHT22;38003;52.012;4.346;2022-07-22T02:55:21;21.10;53.40
51988;DHT22;38003;52.012;4.346;2022-07-22T02:57:49;21.20;53.50
51988;DHT22;38003;52.012;4.346;2022-07-22T03:00:17;21.20;53.60
51988;DHT22;38003;52.012;4.346;2022-07-22T03:02:47;21.20;53.60
51988;DHT22;38003;52.012;4.346;2022-07-22T03:05:16;21.10;53.70
51988;DHT22;38003;52.012;4.346;2022-07-22T03:07:44;21.10;53.80
51988;DHT22;38003;52.012;4.346;2022-07-22T03:10:12;21.10;53.70
51988;DHT22;38003;52.012;4.346;2022-07-22T03:12:40;21.10;54.10
51988;DHT22;38003;52.012;4.346;2022-07-22T03:15:08;21.10;54.40
51988;DHT22;38003;52.012;4.346;2022-07-22T03:17:36;21.10;54.40
51988;DHT22;38003;52.012;4.346;2022-07-22T03:20:06;21.10;54.30
51988;DHT22;38003;52.012;4.346;2022-07-22T03:22:37;21.10;54.40
51988;DHT22;38003;52.012;4.346;2022-07-22T03:25:05;21.10;54.90
51988;DHT22;38003;52.012;4.346;2022-07-22T03:27:33;21.00;54.70
51988;DHT22;38003;52.012;4.346;2022-07-22T03:30:01;21.00;55.10
51988;DHT22;38003;52.012;4.346;2022-07-22T03:32:29;21.00;55.20
51988;DHT22;38003;52.012;4.346;2022-07-22T03:34:57;21.00;55.40
51988;DHT22;38003;52.012;4.346;2022-07-22T03:37:30;20.80;55.40
51988;DHT22;38003;52.012;4.346;2022-07-22T03:39:59;21.10;55.70
51988;DHT22;38003;52.012;4.346;2022-07-22T03:42:27;20.90;55.70
51988;DHT22;38003;52.012;4.346;2022-07-22T03:44:55;20.80;55.60
51988;DHT22;38003;52.012;4.346;2022-07-22T03:47:23;20.80;55.60
51988;DHT22;38003;52.012;4.346;2022-07-22T03:49:52;20.70;55.80
51988;DHT22;38003;52.012;4.346;2022-07-22T03:52:20;20.80;55.90
51988;DHT22;38003;52.012;4.346;2022-07-22T03:54:48;21.00;55.70
51988;DHT22;38003;52.012;4.346;2022-07-22T03:57:17;21.00;55.80
51988;DHT22;38003;52.012;4.346;2022-07-22T03:59:46;20.90;56.10
51988;DHT22;38003;52.012;4.346;2022-07-22T04:02:14;20.90;56.40
51988;DHT22;38003;52.012;4.346;2022-07-22T04:04:42;20.80;56.70
51988;DHT22;38003;52.012;4.346;2022-07-22T04:07:10;20.90;56.80
51988;DHT22;38003;52.012;4.346;2022-07-22T04:09:38;20.90;56.60
51988;DHT22;38003;52.012;4.346;2022-07-22T04:12:06;20.80;56.80
51988;DHT22;38003;52.012;4.346;2022-07-22T04:14:35;20.80;56.80
51988;DHT22;38003;52.012;4.346;2022-07-22T04:17:03;21.10;57.10
51988;DHT22;38003;52.012;4.346;2022-07-22T04:19:32;21.00;56.90
51988;DHT22;38003;52.012;4.346;2022-07-22T04:22:00;20.90;57.10
51988;DHT22;38003;52.012;4.346;2022-07-22T04:24:28;21.10;57.20
51988;DHT22;38003;52.012;4.346;2022-07-22T04:26:56;20.80;56.90
51988;DHT22;38003;52.012;4.346;2022-07-22T04:29:23;20.80;57.20
51988;DHT22;38003;52.012;4.346;2022-07-22T04:31:53;20.80;57.00
51988;DHT22;38003;52.012;4.346;2022-07-22T04:34:28;20.80;57.00
51988;DHT22;38003;52.012;4.346;2022-07-22T04:36:56;20.80;58.00
51988;DHT22;38003;52.012;4.346;2022-07-22T04:39:24;21.10;57.40
51988;DHT22;38003;52.012;4.346;2022-07-22T04:41:52;20.80;57.60
51988;DHT22;38003;52.012;4.346;2022-07-22T04:44:20;20.80;57.50
51988;DHT22;38003;52.012;4.346;2022-07-22T04:46:48;20.80;57.30
51988;DHT22;38003;52.012;4.346;2022-07-22T04:49:18;21.00;57.20
51988;DHT22;38003;52.012;4.346;2022-07-22T04:51:45;20.90;57.00
51988;DHT22;38003;52.012;4.346;2022-07-22T04:54:14;21.20;57.40
51988;DHT22;38003;52.012;4.346;2022-07-22T04:56:42;21.00;57.10
51988;DHT22;38003;52.012;4.346;2022-07-22T04:59:10;21.10;57.00
51988;DHT22;38003;52.012;4.346;2022-07-22T05:01:38;21.00;57.30
51988;DHT22;38003;52.012;4.346;2022-07-22T05:04:06;21.00;57.30
51988;DHT22;38003;52.012;4.346;2022-07-22T05:06:35;21.00;57.50
51988;DHT22;38003;52.012;4.346;2022-07-22T05:09:04;21.00;57.60
51988;DHT22;38003;52.012;4.346;2022-07-22T05:11:32;21.30;57.70
51988;DHT22;38003;52.012;4.346;2022-07-22T05:14:00;21.50;57.80
51988;DHT22;38003;52.012;4.346;2022-07-22T05:16:28;21.10;57.30
51988;DHT22;38003;52.012;4.346;2022-07-22T05:18:56;21.10;57.40
51988;DHT22;38003;52.012;4.346;2022-07-22T05:21:25;21.10;57.50
51988;DHT22;38003;52.012;4.346;2022-07-22T05:23:54;21.20;57.40
51988;DHT22;38003;52.012;4.346;2022-07-22T05:26:22;21.40;57.50
51988;DHT22;38003;52.012;4.346;2022-07-22T05:28:52;21.30;57.30
51988;DHT22;38003;52.012;4.346;2022-07-22T05:31:21;21.30;57.00
51988;DHT22;38003;52.012;4.346;2022-07-22T05:33:49;21.30;56.80
51988;DHT22;38003;52.012;4.346;2022-07-22T05:36:17;21.30;56.70
51988;DHT22;38003;52.012;4.346;2022-07-22T05:38:45;21.20;56.20
51988;DHT22;38003;52.012;4.346;2022-07-22T05:41:14;21.30;55.60
51988;DHT22;38003;52.012;4.346;2022-07-22T05:43:42;21.40;55.70
51988;DHT22;38003;52.012;4.346;2022-07-22T05:46:10;21.30;55.40
51988;DHT22;38003;52.012;4.346;2022-07-22T05:48:38;21.30;55.50
51988;DHT22;38003;52.012;4.346;2022-07-22T05:51:11;21.40;55.80
51988;DHT22;38003;52.012;4.346;2022-07-22T05:53:39;21.30;55.60
51988;DHT22;38003;52.012;4.346;2022-07-22T05:56:08;21.40;55.30
51988;DHT22;38003;52.012;4.346;2022-07-22T05:58:39;21.40;55.50
51988;DHT22;38003;52.012;4.346;2022-07-22T06:01:08;21.50;55.40
51988;DHT22;38003;52.012;4.346;2022-07-22T06:03:37;21.40;55.30
51988;DHT22;38003;52.012;4.346;2022-07-22T06:06:05;21.40;54.90
51988;DHT22;38003;52.012;4.346;2022-07-22T06:08:36;21.50;55.30
51988;DHT22;38003;52.012;4.346;2022-07-22T06:11:04;21.50;55.00
51988;DHT22;38003;52.012;4.346;2022-07-22T06:13:32;21.50;54.80
51988;DHT22;38003;52.012;4.346;2022-07-22T06:16:02;21.50;55.10
51988;DHT22;38003;52.012;4.346;2022-07-22T06:18:31;21.50;55.00
51988;DHT22;38003;52.012;4.346;2022-07-22T06:20:58;21.90;55.70
51988;DHT22;38003;52.012;4.346;2022-07-22T06:23:26;21.80;55.10
51988;DHT22;38003;52.012;4.346;2022-07-22T06:25:54;21.60;54.70
51988;DHT22;38003;52.012;4.346;2022-07-22T06:28:22;21.60;54.70
51988;DHT22;38003;52.012;4.346;2022-07-22T06:30:50;21.60;54.80
51988;DHT22;38003;52.012;4.346;2022-07-22T06:33:19;21.70;54.40
51988;DHT22;38003;52.012;4.346;2022-07-22T06:35:47;21.70;54.70
51988;DHT22;38003;52.012;4.346;2022-07-22T06:38:15;21.70;54.60
51988;DHT22;38003;52.012;4.346;2022-07-22T06:40:58;21.80;54.20
51988;DHT22;38003;52.012;4.346;2022-07-22T06:43:27;21.70;53.60
51988;DHT22;38003;52.012;4.346;2022-07-22T06:45:55;21.90;54.10
51988;DHT22;38003;52.012;4.346;2022-07-22T06:48:24;21.90;53.80
51988;DHT22;38003;52.012;4.346;2022-07-22T06:50:52;21.80;53.60
51988;DHT22;38003;52.012;4.346;2022-07-22T06:53:21;21.90;53.90
51988;DHT22;38003;52.012;4.346;2022-07-22T06:55:48;21.80;53.30
51988;DHT22;38003;52.012;4.346;2022-07-22T06:58:16;21.70;53.20
51988;DHT22;38003;52.012;4.346;2022-07-22T07:00:44;21.70;53.40
51988;DHT22;38003;52.012;4.346;2022-07-22T07:03:12;21.80;53.60
51988;DHT22;38003;52.012;4.346;2022-07-22T07:06:02;21.80;53.40
51988;DHT22;38003;52.012;4.346;2022-07-22T07:08:30;21.80;54.30
51988;DHT22;38003;52.012;4.346;2022-07-22T07:10:58;21.80;53.10
51988;DHT22;38003;52.012;4.346;2022-07-22T07:13:27;21.80;53.30
51988;DHT22;38003;52.012;4.346;2022-07-22T07:15:55;22.00;53.50
51988;DHT22;38003;52.012;4.346;2022-07-22T07:18:24;21.80;53.50
51988;DHT22;38003;52.012;4.346;2022-07-22T07:20:52;21.80;53.20
51988;DHT22;38003;52.012;4.346;2022-07-22T07:23:21;21.90;53.00
51988;DHT22;38003;52.012;4.346;2022-07-22T07:25:49;21.80;52.50
51988;DHT22;38003;52.012;4.346;2022-07-22T07:28:17;21.80;52.40
51988;DHT22;38003;52.012;4.346;2022-07-22T07:30:46;21.80;52.30
51988;DHT22;38003;52.012;4.346;2022-07-22T07:33:14;21.80;52.30
51988;DHT22;38003;52.012;4.346;2022-07-22T07:35:42;21.80;52.10
51988;DHT22;38003;52.012;4.346;2022-07-22T07:38:10;21.80;52.10
51988;DHT22;38003;52.012;4.346;2022-07-22T07:40:40;21.80;52.00
51988;DHT22;38003;52.012;4.346;2022-07-22T07:43:08;21.80;52.20
51988;DHT22;38003;52.012;4.346;2022-07-22T07:45:36;21.80;52.40
51988;DHT22;38003;52.012;4.346;2022-07-22T07:48:05;21.90;52.40
51988;DHT22;38003;52.012;4.346;2022-07-22T07:50:33;21.90;52.10
51988;DHT22;38003;52.012;4.346;2022-07-22T07:53:01;22.00;52.30
51988;DHT22;38003;52.012;4.346;2022-07-22T07:55:30;21.90;52.30
51988;DHT22;38003;52.012;4.346;2022-07-22T07:58:01;22.00;52.20
51988;DHT22;38003;52.012;4.346;2022-07-22T08:00:29;22.00;52.10
51988;DHT22;38003;52.012;4.346;2022-07-22T08:02:59;21.90;51.60
51988;DHT22;38003;52.012;4.346;2022-07-22T08:05:28;21.90;51.60
51988;DHT22;38003;52.012;4.346;2022-07-22T08:07:56;22.00;52.20
51988;DHT22;38003;52.012;4.346;2022-07-22T08:10:24;22.00;53.20
51988;DHT22;38003;52.012;4.346;2022-07-22T08:13:14;22.00;51.90
51988;DHT22;38003;52.012;4.346;2022-07-22T08:15:44;21.90;51.40
51988;DHT22;38003;52.012;4.346;2022-07-22T08:18:12;21.90;52.00
51988;DHT22;38003;52.012;4.346;2022-07-22T08:20:41;21.90;52.00
51988;DHT22;38003;52.012;4.346;2022-07-22T08:23:09;21.90;51.60
51988;DHT22;38003;52.012;4.346;2022-07-22T08:25:37;22.10;52.20
51988;DHT22;38003;52.012;4.346;2022-07-22T08:28:05;22.10;52.70
51988;DHT22;38003;52.012;4.346;2022-07-22T08:30:35;22.20;52.80
51988;DHT22;38003;52.012;4.346;2022-07-22T08:33:03;22.20;52.70
51988;DHT22;38003;52.012;4.346;2022-07-22T08:35:31;22.10;52.80
51988;DHT22;38003;52.012;4.346;2022-07-22T08:37:59;22.20;52.40
51988;DHT22;38003;52.012;4.346;2022-07-22T08:40:27;22.10;52.50
51988;DHT22;38003;52.012;4.346;2022-07-22T08:42:55;22.20;52.80
51988;DHT22;38003;52.012;4.346;2022-07-22T08:45:24;22.20;52.50
51988;DHT22;38003;52.012;4.346;2022-07-22T08:47:54;22.30;52.30
51988;DHT22;38003;52.012;4.346;2022-07-22T08:50:22;22.30;52.30
51988;DHT22;38003;52.012;4.346;2022-07-22T08:52:50;22.30;52.30
51988;DHT22;38003;52.012;4.346;2022-07-22T08:55:17;22.40;52.30
51988;DHT22;38003;52.012;4.346;2022-07-22T08:57:47;22.40;52.20
51988;DHT22;38003;52.012;4.346;2022-07-22T09:00:19;22.40;52.00
51988;DHT22;38003;52.012;4.346;2022-07-22T09:02:47;22.30;52.00
51988;DHT22;38003;52.012;4.346;2022-07-22T09:05:18;22.30;52.00
51988;DHT22;38003;52.012;4.346;2022-07-22T09:08:06;22.30;52.00
51988;DHT22;38003;52.012;4.346;2022-07-22T09:10:35;22.30;52.40
51988;DHT22;38003;52.012;4.346;2022-07-22T09:13:05;22.40;52.50
51988;DHT22;38003;52.012;4.346;2022-07-22T09:15:35;22.60;52.20
51988;DHT22;38003;52.012;4.346;2022-07-22T09:18:04;22.60;52.40
51988;DHT22;38003;52.012;4.346;2022-07-22T09:20:35;22.70;52.30
51988;DHT22;38003;52.012;4.346;2022-07-22T09:23:08;22.80;51.50
51988;DHT22;38003;52.012;4.346;2022-07-22T09:25:38;22.90;51.70
51988;DHT22;38003;52.012;4.346;2022-07-22T09:28:12;22.90;51.70
51988;DHT22;38003;52.012;4.346;2022-07-22T09:30:46;23.10;51.80
51988;DHT22;38003;52.012;4.346;2022-07-22T09:33:17;23.00;51.50
51988;DHT22;38003;52.012;4.346;2022-07-22T09:35:47;23.10;51.20
51988;DHT22;38003;52.012;4.346;2022-07-22T09:38:18;23.00;50.80
51988;DHT22;38003;52.012;4.346;2022-07-22T09:40:48;23.10;51.10
51988;DHT22;38003;52.012;4.346;2022-07-22T09:43:18;23.00;51.30
51988;DHT22;38003;52.012;4.346;2022-07-22T09:45:47;23.10;51.20
51988;DHT22;38003;52.012;4.346;2022-07-22T09:48:17;23.00;50.70
51988;DHT22;38003;52.012;4.346;2022-07-22T09:50:49;23.10;50.70
51988;DHT22;38003;52.012;4.346;2022-07-22T09:53:20;23.10;50.70
51988;DHT22;38003;52.012;4.346;2022-07-22T09:55:49;23.10;50.40
51988;DHT22;38003;52.012;4.346;2022-07-22T09:58:17;23.00;50.50
51988;DHT22;38003;52.012;4.346;2022-07-22T10:00:45;23.00;50.80
51988;DHT22;38003;52.012;4.346;2022-07-22T10:03:19;23.10;50.50
51988;DHT22;38003;52.012;4.346;2022-07-22T10:05:50;23.20;50.40
51988;DHT22;38003;52.012;4.346;2022-07-22T10:08:20;23.20;50.40
51988;DHT22;38003;52.012;4.346;2022-07-22T10:10:48;23.10;50.40
51988;DHT22;38003;52.012;4.346;2022-07-22T10:13:17;23.20;50.10
51988;DHT22;38003;52.012;4.346;2022-07-22T10:15:46;23.30;50.10
51988;DHT22;38003;52.012;4.346;2022-07-22T10:18:17;23.40;49.90
51988;DHT22;38003;52.012;4.346;2022-07-22T10:20:46;23.40;49.90
51988;DHT22;38003;52.012;4.346;2022-07-22T10:23:16;23.50;49.90
51988;DHT22;38003;52.012;4.346;2022-07-22T10:25:52;23.60;49.10
51988;DHT22;38003;52.012;4.346;2022-07-22T10:28:22;23.60;49.30
51988;DHT22;38003;52.012;4.346;2022-07-22T10:30:51;23.60;49.00
51988;DHT22;38003;52.012;4.346;2022-07-22T10:33:20;23.70;49.10
51988;DHT22;38003;52.012;4.346;2022-07-22T10:35:56;23.70;49.10
51988;DHT22;38003;52.012;4.346;2022-07-22T10:38:27;23.80;48.90
51988;DHT22;38003;52.012;4.346;2022-07-22T10:40:56;23.70;48.90
51988;DHT22;38003;52.012;4.346;2022-07-22T10:43:26;23.90;48.80
51988;DHT22;38003;52.012;4.346;2022-07-22T10:45:55;23.70;48.40
51988;DHT22;38003;52.012;4.346;2022-07-22T10:48:25;23.90;48.50
51988;DHT22;38003;52.012;4.346;2022-07-22T10:51:12;24.00;48.70
51988;DHT22;38003;52.012;4.346;2022-07-22T10:53:44;24.20;48.20
51988;DHT22;38003;52.012;4.346;2022-07-22T10:56:18;24.20;48.30
51988;DHT22;38003;52.012;4.346;2022-07-22T10:58:57;24.20;48.20
51988;DHT22;38003;52.012;4.346;2022-07-22T11:01:29;24.10;48.10
51988;DHT22;38003;52.012;4.346;2022-07-22T11:04:08;24.00;48.20
51988;DHT22;38003;52.012;4.346;2022-07-22T11:06:44;24.00;48.40
51988;DHT22;38003;52.012;4.346;2022-07-22T11:09:15;24.10;48.40
51988;DHT22;38003;52.012;4.346;2022-07-22T11:11:44;24.40;47.80
51988;DHT22;38003;52.012;4.346;2022-07-22T11:14:19;24.60;47.70
51988;DHT22;38003;52.012;4.346;2022-07-22T11:16:48;24.40;48.00
51988;DHT22;38003;52.012;4.346;2022-07-22T11:19:21;24.40;48.00
51988;DHT22;38003;52.012;4.346;2022-07-22T11:21:51;24.30;47.90
51988;DHT22;38003;52.012;4.346;2022-07-22T11:24:22;24.30;47.90
51988;DHT22;38003;52.012;4.346;2022-07-22T11:26:52;24.20;48.20
51988;DHT22;38003;52.012;4.346;2022-07-22T11:29:25;24.20;48.30
51988;DHT22;38003;52.012;4.346;2022-07-22T11:31:55;24.20;47.80
51988;DHT22;38003;52.012;4.346;2022-07-22T11:34:24;24.20;48.00
51988;DHT22;38003;52.012;4.346;2022-07-22T11:36:53;24.30;47.20
51988;DHT22;38003;52.012;4.346;2022-07-22T11:39:25;24.50;47.20
51988;DHT22;38003;52.012;4.346;2022-07-22T11:41:55;24.50;46.90
51988;DHT22;38003;52.012;4.346;2022-07-22T11:44:25;24.60;47.20
51988;DHT22;38003;52.012;4.346;2022-07-22T11:46:54;24.60;47.00
51988;DHT22;38003;52.012;4.346;2022-07-22T11:49:26;24.80;47.30
51988;DHT22;38003;52.012;4.346;2022-07-22T11:51:54;24.90;47.90
51988;DHT22;38003;52.012;4.346;2022-07-22T11:54:23;24.50;47.40
51988;DHT22;38003;52.012;4.346;2022-07-22T11:56:51;24.60;47.50
51988;DHT22;38003;52.012;4.346;2022-07-22T11:59:23;24.80;47.30
51988;DHT22;38003;52.012;4.346;2022-07-22T12:01:51;24.80;46.90
51988;DHT22;38003;52.012;4.346;2022-07-22T12:04:21;24.90;46.90
51988;DHT22;38003;52.012;4.346;2022-07-22T12:06:50;25.00;46.70
51988;DHT22;38003;52.012;4.346;2022-07-22T12:09:22;25.00;46.80
51988;DHT22;38003;52.012;4.346;2022-07-22T12:11:54;25.00;46.90
51988;DHT22;38003;52.012;4.346;2022-07-22T12:14:25;24.90;46.30
51988;DHT22;38003;52.012;4.346;2022-07-22T12:16:56;25.00;46.70
51988;DHT22;38003;52.012;4.346;2022-07-22T12:19:25;24.90;46.50
51988;DHT22;38003;52.012;4.346;2022-07-22T12:21:57;24.90;46.40
51988;DHT22;38003;52.012;4.346;2022-07-22T12:24:28;25.00;46.50
51988;DHT22;38003;52.012;4.346;2022-07-22T12:26:58;24.90;46.20
51988;DHT22;38003;52.012;4.346;2022-07-22T12:29:29;25.20;46.90
51988;DHT22;38003;52.012;4.346;2022-07-22T12:31:59;25.10;46.50
51988;DHT22;38003;52.012;4.346;2022-07-22T12:34:36;25.10;46.40
51988;DHT22;38003;52.012;4.346;2022-07-22T12:37:15;25.10;46.10
51988;DHT22;38003;52.012;4.346;2022-07-22T12:39:54;25.10;46.10
51988;DHT22;38003;52.012;4.346;2022-07-22T12:42:24;25.10;46.00
51988;DHT22;38003;52.012;4.346;2022-07-22T12:45:00;25.00;46.60
51988;DHT22;38003;52.012;4.346;2022-07-22T12:47:46;25.10;46.30
51988;DHT22;38003;52.012;4.346;2022-07-22T12:50:19;25.00;45.90
51988;DHT22;38003;52.012;4.346;2022-07-22T12:52:48;24.90;45.20
51988;DHT22;38003;52.012;4.346;2022-07-22T12:55:37;25.10;46.00
51988;DHT22;38003;52.012;4.346;2022-07-22T12:58:08;25.40;45.40
51988;DHT22;38003;52.012;4.346;2022-07-22T13:00:39;25.30;45.60
51988;DHT22;38003;52.012;4.346;2022-07-22T13:03:07;25.30;45.50
51988;DHT22;38003;52.012;4.346;2022-07-22T13:05:36;25.30;45.40
51988;DHT22;38003;52.012;4.346;2022-07-22T13:08:04;25.40;45.80
51988;DHT22;38003;52.012;4.346;2022-07-22T13:10:35;25.40;45.70
51988;DHT22;38003;52.012;4.346;2022-07-22T13:13:06;25.20;45.50
51988;DHT22;38003;52.012;4.346;2022-07-22T13:15:34;25.10;45.70
51988;DHT22;38003;52.012;4.346;2022-07-22T13:18:03;25.10;45.60
51988;DHT22;38003;52.012;4.346;2022-07-22T13:20:32;25.10;46.00
51988;DHT22;38003;52.012;4.346;2022-07-22T13:23:00;25.20;45.70
51988;DHT22;38003;52.012;4.346;2022-07-22T13:25:28;25.10;45.40
51988;DHT22;38003;52.012;4.346;2022-07-22T13:27:57;25.00;45.30
51988;DHT22;38003;52.012;4.346;2022-07-22T13:30:27;25.10;45.70
51988;DHT22;38003;52.012;4.346;2022-07-22T13:32:55;25.10;45.70
51988;DHT22;38003;52.012;4.346;2022-07-22T13:35:23;25.30;45.90
51988;DHT22;38003;52.012;4.346;2022-07-22T13:37:50;25.30;45.50
51988;DHT22;38003;52.012;4.346;2022-07-22T13:40:19;25.40;45.40
51988;DHT22;38003;52.012;4.346;2022-07-22T13:42:47;25.20;44.60
51988;DHT22;38003;52.012;4.346;2022-07-22T13:45:15;25.10;45.50
51988;DHT22;38003;52.012;4.346;2022-07-22T13:47:44;25.10;45.60
51988;DHT22;38003;52.012;4.346;2022-07-22T13:50:12;25.10;45.40
51988;DHT22;38003;52.012;4.346;2022-07-22T13:52:40;25.10;46.00
51988;DHT22;38003;52.012;4.346;2022-07-22T13:55:08;25.20;45.60
51988;DHT22;38003;52.012;4.346;2022-07-22T13:57:36;25.10;45.70
51988;DHT22;38003;52.012;4.346;2022-07-22T14:00:05;24.90;45.80
51988;DHT22;38003;52.012;4.346;2022-07-22T14:02:40;24.90;45.80
51988;DHT22;38003;52.012;4.346;2022-07-22T14:05:10;24.80;45.80
51988;DHT22;38003;52.012;4.346;2022-07-22T14:07:38;24.70;45.90
51988;DHT22;38003;52.012;4.346;2022-07-22T14:10:07;24.70;46.20
51988;DHT22;38003;52.012;4.346;2022-07-22T14:12:36;24.60;46.30
51988;DHT22;38003;52.012;4.346;2022-07-22T14:15:05;24.70;45.70
51988;DHT22;38003;52.012;4.346;2022-07-22T14:17:34;24.60;45.80
51988;DHT22;38003;52.012;4.346;2022-07-22T14:20:03;24.50;46.00
51988;DHT22;38003;52.012;4.346;2022-07-22T14:22:35;24.50;45.90
51988;DHT22;38003;52.012;4.346;2022-07-22T14:25:03;24.40;45.90
51988;DHT22;38003;52.012;4.346;2022-07-22T14:27:31;24.40;46.10
51988;DHT22;38003;52.012;4.346;2022-07-22T14:29:59;24.30;46.10
51988;DHT22;38003;52.012;4.346;2022-07-22T14:32:27;24.40;46.20
51988;DHT22;38003;52.012;4.346;2022-07-22T14:34:55;24.40;46.00
51988;DHT22;38003;52.012;4.346;2022-07-22T14:37:23;24.40;46.20
51988;DHT22;38003;52.012;4.346;2022-07-22T14:39:54;24.50;46.30
51988;DHT22;38003;52.012;4.346;2022-07-22T14:42:22;24.40;45.90
51988;DHT22;38003;52.012;4.346;2022-07-22T14:44:50;24.30;46.30
51988;DHT22;38003;52.012;4.346;2022-07-22T14:47:18;24.40;46.40
51988;DHT22;38003;52.012;4.346;2022-07-22T14:49:46;24.20;46.40
51988;DHT22;38003;52.012;4.346;2022-07-22T14:52:14;24.20;46.40
51988;DHT22;38003;52.012;4.346;2022-07-22T14:54:42;24.20;46.40
51988;DHT22;38003;52.012;4.346;2022-07-22T14:57:11;24.10;46.40
51988;DHT22;38003;52.012;4.346;2022-07-22T14:59:40;24.20;46.20
51988;DHT22;38003;52.012;4.346;2022-07-22T15:02:08;24.10;46.30
51988;DHT22;38003;52.012;4.346;2022-07-22T15:04:36;24.00;46.60
51988;DHT22;38003;52.012;4.346;2022-07-22T15:07:04;24.20;47.00
51988;DHT22;38003;52.012;4.346;2022-07-22T15:09:32;24.20;46.60
51988;DHT22;38003;52.012;4.346;2022-07-22T15:11:59;24.10;46.30
51988;DHT22;38003;52.012;4.346;2022-07-22T15:14:29;24.20;46.90
51988;DHT22;38003;52.012;4.346;2022-07-22T15:16:57;24.20;46.80
51988;DHT22;38003;52.012;4.346;2022-07-22T15:19:25;24.10;46.40
51988;DHT22;38003;52.012;4.346;2022-07-22T15:21:53;24.10;46.50
51988;DHT22;38003;52.012;4.346;2022-07-22T15:24:21;24.00;46.70
51988;DHT22;38003;52.012;4.346;2022-07-22T15:26:49;24.10;46.90
51988;DHT22;38003;52.012;4.346;2022-07-22T15:29:17;24.00;46.80
51988;DHT22;38003;52.012;4.346;2022-07-22T15:31:47;24.00;46.90
51988;DHT22;38003;52.012;4.346;2022-07-22T15:34:15;24.00;46.60
51988;DHT22;38003;52.012;4.346;2022-07-22T15:36:43;23.90;47.00
51988;DHT22;38003;52.012;4.346;2022-07-22T15:39:12;23.80;47.20
51988;DHT22;38003;52.012;4.346;2022-07-22T15:41:40;23.70;47.10
51988;DHT22;38003;52.012;4.346;2022-07-22T15:44:08;24.00;47.30